< < Back
Terminal Aerodrome Forecast


Current Version              Previous Versions:   1  2  3  4  5  6  7  8  9  

Terminal Aerodrome Forecast

013
FTUS44 KBMX 221147 RRA
TAFBHM
TAF
KBHM 221147Z 2212/2306 VRB03KT P6SM SCT010 BKN050
     FM221300 VRB03KT P6SM BKN250
     FM221800 19005KT P6SM VCTS SCT050CB
     FM230300 VRB03KT P6SM BKN250=



Latest METAR

590
SAUS70 KWBC 230900 RRJ
MTRBHM
METAR KBHM 230853Z 00000KT 10SM CLR 26/23 A3003 RMK AO2 SLP160 T02560228
55006


USA.gov is the U.S. government's official web portal to all federal, state and local government web resources and services.